createdAt,value
2018-05-26T00:12:03.603Z,98569.56
2018-05-26T00:32:39.381Z,98551.20
2018-05-26T00:53:15.068Z,98548.17
2018-05-26T01:13:49.004Z,98542.23
2018-05-26T01:34:21.205Z,98539.59
2018-05-26T01:54:56.476Z,98554.98
2018-05-26T02:15:32.669Z,98552.03
2018-05-26T02:36:06.099Z,98535.81
2018-05-26T02:56:41.065Z,98539.64
2018-05-26T03:17:18.178Z,98563.73
2018-05-26T03:37:52.527Z,98565.32
2018-05-26T03:58:41.935Z,98567.47
2018-05-26T04:19:16.466Z,98592.80
2018-05-26T04:39:52.487Z,98602.61
2018-05-26T05:00:24.676Z,98618.89
2018-05-26T05:20:59.949Z,98632.59
2018-05-26T05:41:32.381Z,98622.91
2018-05-26T06:02:06.759Z,98630.63
2018-05-26T06:22:41.464Z,98613.02
2018-05-26T06:43:16.117Z,98615.38
2018-05-26T07:03:54.285Z,98620.16
2018-05-26T07:24:29.124Z,98627.16
2018-05-26T07:45:04.707Z,98642.13
2018-05-26T08:05:39.672Z,98631.20
2018-05-26T08:26:16.198Z,98648.14
2018-05-26T08:46:48.988Z,98640.47
2018-05-26T09:07:23.335Z,98629.58
2018-05-26T09:28:00.452Z,98624.73
2018-05-26T09:48:34.799Z,98639.96
2018-05-26T10:09:09.152Z,98632.99
2018-05-26T10:29:50.263Z,98633.80
2018-05-26T10:50:22.932Z,98639.78
2018-05-26T11:10:55.582Z,98649.23
2018-05-26T11:31:28.358Z,98650.84
2018-05-26T11:52:06.125Z,98637.43
2018-05-26T12:12:39.254Z,98631.17
2018-05-26T12:33:12.897Z,98629.53
2018-05-26T13:14:19.234Z,98606.52
2018-05-26T13:34:56.347Z,98571.96
2018-05-26T13:55:32.539Z,98570.61
2018-05-26T14:16:04.737Z,98579.23
2018-05-26T14:36:43.079Z,98574.58
2018-05-26T14:57:16.211Z,98576.82
2018-05-26T15:17:51.475Z,98558.29
2018-05-26T15:38:23.901Z,98548.92
2018-05-26T15:58:55.878Z,98533.91
2018-05-26T16:19:33.352Z,98542.61
2018-05-26T16:40:07.341Z,98547.70
2018-05-26T17:00:41.697Z,98548.58
2018-05-26T17:21:17.583Z,98553.85
2018-05-26T17:41:51.309Z,98564.20
2018-05-26T18:02:24.130Z,98551.55
2018-05-26T18:22:56.326Z,98565.60
2018-05-26T18:43:31.603Z,98574.64
2018-05-26T19:04:03.805Z,98590.61
2018-05-26T19:24:35.078Z,98603.64
2018-05-26T19:45:07.288Z,98624.91
2018-05-26T20:05:42.708Z,98631.66
2018-05-26T20:26:16.289Z,98644.06
2018-05-26T20:46:50.025Z,98651.98
2018-05-26T21:07:27.142Z,98633.44
2018-05-26T21:28:03.336Z,98641.48
2018-05-26T21:48:35.538Z,98599.77
2018-05-26T22:09:07.746Z,98608.97
2018-05-26T22:29:41.272Z,98589.45
2018-05-26T22:50:12.136Z,98586.68
2018-05-26T23:28:48.153Z,98615.80
2018-05-26T23:49:21.281Z,98604.02
